Folla — LLPD — position and weather

sailwx.info

Track history (hours):
 
Tides and Currents Weather Stations Pressure Air Temp Water Temp Dewpoint Dewpoint Depression Visibility Wind Speed Wind Dir Waves Ship Positions

Folla

Last reported at 2014-Aug-30 17:23 UTC. Time now 2014-Aug-30 22:37 UTC.
Position N 69°33' E 018°55'.

Length 52 m; draft 5 m.

Type: Cargo ship. MMSI: 258253000.

Date/timePositionNaut miles runAvg speedWind from/ knotsBaromVisibWave heightAir tempDewpointWater temp
2014-Aug-30 17:23N 69°33' E 018°55'8 9.0
2014-Aug-30 16:33N 69°41' E 018°59'1 0.9
2014-Aug-30 15:33N 69°40' E 018°58'231 7.0
2014-Aug-29 06:30N 66°35' E 012°46'1011.0
2014-Aug-29 05:33N 66°25' E 012°46'75 9.2
2014-Aug-28 21:22N 65°13' E 011°53'911.1
2014-Aug-28 20:33N 65°04' E 011°45'1110.8
2014-Aug-28 19:33N 64°56' E 011°27'7 6.6
2014-Aug-28 18:33N 64°52' E 011°17'10 9.0
2014-Aug-28 17:29N 64°43' E 011°07'3 0.1
2014-Aug-27 10:22N 64°46' E 011°05'7 8.6
2014-Aug-27 09:33N 64°51' E 011°17'1 1.0
2014-Aug-27 08:33N 64°52' E 011°15'0 0.0
2014-Aug-27 07:33N 64°52' E 011°15'0 0.1
2014-Aug-27 06:33N 64°52' E 011°14'81 4.6
2014-Aug-26 13:07N 66°05' E 012°37'611.4
2014-Aug-26 12:33N 66°09' E 012°49'1111.3
2014-Aug-26 11:33N 66°20' E 012°56'1211.3
2014-Aug-26 10:31N 66°32' E 012°58'45 7.0
2014-Aug-26 04:08N 67°09' E 014°02'611.0
2014-Aug-26 03:34N 67°12' E 014°16'5 4.8
2014-Aug-26 02:30N 67°07' E 014°18'910.0
2014-Aug-26 01:33N 67°17' E 014°20'2 1.7
2014-Aug-26 00:33N 67°17' E 014°24'4 4.3
2014-Aug-25 23:33N 67°22' E 014°24'1211.5
2014-Aug-25 22:33N 67°33' E 014°30'156 6.5
2014-Aug-24 22:33N 69°36' E 018°53'10 0.6
2014-Aug-24 05:22N 69°45' E 019°07'911.0
2014-Aug-24 04:33N 69°37' E 018°56'4 0.4
2014-Aug-23 20:10N 69°33' E 018°56'711.1
2014-Aug-23 19:33N 69°40' E 018°59'234 6.2
2014-Aug-22 05:33N 66°29' E 012°58'6 6.0
2014-Aug-22 04:30N 66°24' E 012°50'26 7.9
2014-Aug-22 01:15N 65°59' E 012°30'5310.8
2014-Aug-21 20:21N 65°09' E 011°50'911.3
2014-Aug-21 19:33N 65°01' E 011°41'1111.2
2014-Aug-21 18:33N 64°54' E 011°20'8 0.3
2014-Aug-20 17:33N 64°48' E 011°07'  
Track history (hours):
 
Tides and Currents Weather Stations Pressure Air Temp Water Temp Dewpoint Dewpoint Depression Visibility Wind Speed Wind Dir Waves Ship Positions

Folla

Last reported at 2014-Aug-30 17:23 UTC. Time now 2014-Aug-30 22:37 UTC.
Position N 69°33' E 018°55'.

Length 52 m; draft 5 m.

Type: Cargo ship. MMSI: 258253000.

Date/timePositionNaut miles runAvg speedWind from/ knotsBaromVisibWave heightAir tempDewpointWater temp
2014-Aug-30 17:23N 69°33' E 018°55'8 9.0
2014-Aug-30 16:33N 69°41' E 018°59'1 0.9
2014-Aug-30 15:33N 69°40' E 018°58'231 7.0
2014-Aug-29 06:30N 66°35' E 012°46'1011.0
2014-Aug-29 05:33N 66°25' E 012°46'75 9.2
2014-Aug-28 21:22N 65°13' E 011°53'911.1
2014-Aug-28 20:33N 65°04' E 011°45'1110.8
2014-Aug-28 19:33N 64°56' E 011°27'7 6.6
2014-Aug-28 18:33N 64°52' E 011°17'10 9.0
2014-Aug-28 17:29N 64°43' E 011°07'3 0.1
2014-Aug-27 10:22N 64°46' E 011°05'7 8.6
2014-Aug-27 09:33N 64°51' E 011°17'1 1.0
2014-Aug-27 08:33N 64°52' E 011°15'0 0.0
2014-Aug-27 07:33N 64°52' E 011°15'0 0.1
2014-Aug-27 06:33N 64°52' E 011°14'81 4.6
2014-Aug-26 13:07N 66°05' E 012°37'611.4
2014-Aug-26 12:33N 66°09' E 012°49'1111.3
2014-Aug-26 11:33N 66°20' E 012°56'1211.3
2014-Aug-26 10:31N 66°32' E 012°58'45 7.0
2014-Aug-26 04:08N 67°09' E 014°02'611.0
2014-Aug-26 03:34N 67°12' E 014°16'5 4.8
2014-Aug-26 02:30N 67°07' E 014°18'910.0
2014-Aug-26 01:33N 67°17' E 014°20'2 1.7
2014-Aug-26 00:33N 67°17' E 014°24'4 4.3
2014-Aug-25 23:33N 67°22' E 014°24'1211.5
2014-Aug-25 22:33N 67°33' E 014°30'156 6.5
2014-Aug-24 22:33N 69°36' E 018°53'10 0.6
2014-Aug-24 05:22N 69°45' E 019°07'911.0
2014-Aug-24 04:33N 69°37' E 018°56'4 0.4
2014-Aug-23 20:10N 69°33' E 018°56'711.1
2014-Aug-23 19:33N 69°40' E 018°59'234 6.2
2014-Aug-22 05:33N 66°29' E 012°58'6 6.0
2014-Aug-22 04:30N 66°24' E 012°50'26 7.9
2014-Aug-22 01:15N 65°59' E 012°30'5310.8
2014-Aug-21 20:21N 65°09' E 011°50'911.3
2014-Aug-21 19:33N 65°01' E 011°41'1111.2
2014-Aug-21 18:33N 64°54' E 011°20'8 0.3
2014-Aug-20 17:33N 64°48' E 011°07'  

Dump ship's entire track history